sensor_id;sensor_type;location;lat;lon;timestamp;P1;durP1;ratioP1;P2;durP2;ratioP2
54545;SDS011;40444;45.184;9.850;2023-12-29T00:01:41;24.73;;;21.25;;
54545;SDS011;40444;45.184;9.850;2023-12-29T00:04:10;28.50;;;22.95;;
54545;SDS011;40444;45.184;9.850;2023-12-29T00:06:39;26.50;;;21.20;;
54545;SDS011;40444;45.184;9.850;2023-12-29T00:09:23;27.77;;;21.90;;
54545;SDS011;40444;45.184;9.850;2023-12-29T00:11:52;26.23;;;23.23;;
54545;SDS011;40444;45.184;9.850;2023-12-29T00:14:22;30.42;;;23.33;;
54545;SDS011;40444;45.184;9.850;2023-12-29T00:16:50;27.63;;;23.10;;
54545;SDS011;40444;45.184;9.850;2023-12-29T00:19:19;34.17;;;23.92;;
54545;SDS011;40444;45.184;9.850;2023-12-29T00:21:48;32.08;;;21.67;;
54545;SDS011;40444;45.184;9.850;2023-12-29T00:24:16;31.67;;;23.60;;
54545;SDS011;40444;45.184;9.850;2023-12-29T00:26:45;32.15;;;24.15;;
54545;SDS011;40444;45.184;9.850;2023-12-29T00:29:14;30.48;;;24.00;;
54545;SDS011;40444;45.184;9.850;2023-12-29T00:31:43;28.52;;;23.55;;
54545;SDS011;40444;45.184;9.850;2023-12-29T00:34:11;32.08;;;25.45;;
54545;SDS011;40444;45.184;9.850;2023-12-29T00:36:40;31.85;;;24.45;;
54545;SDS011;40444;45.184;9.850;2023-12-29T00:39:08;29.95;;;24.77;;
54545;SDS011;40444;45.184;9.850;2023-12-29T00:41:37;30.67;;;23.85;;
54545;SDS011;40444;45.184;9.850;2023-12-29T00:44:07;29.02;;;23.52;;
54545;SDS011;40444;45.184;9.850;2023-12-29T00:46:36;27.77;;;23.70;;
54545;SDS011;40444;45.184;9.850;2023-12-29T00:49:05;28.55;;;22.45;;
54545;SDS011;40444;45.184;9.850;2023-12-29T00:51:38;27.50;;;22.63;;
54545;SDS011;40444;45.184;9.850;2023-12-29T00:54:09;28.92;;;24.70;;
54545;SDS011;40444;45.184;9.850;2023-12-29T00:56:38;30.23;;;23.77;;
54545;SDS011;40444;45.184;9.850;2023-12-29T00:59:06;30.85;;;25.80;;
54545;SDS011;40444;45.184;9.850;2023-12-29T01:01:35;30.40;;;25.13;;
54545;SDS011;40444;45.184;9.850;2023-12-29T01:04:04;30.48;;;25.73;;
54545;SDS011;40444;45.184;9.850;2023-12-29T01:06:33;32.95;;;26.27;;
54545;SDS011;40444;45.184;9.850;2023-12-29T01:09:01;30.88;;;25.55;;
54545;SDS011;40444;45.184;9.850;2023-12-29T01:11:30;31.90;;;26.15;;
54545;SDS011;40444;45.184;9.850;2023-12-29T01:13:58;34.42;;;25.77;;
54545;SDS011;40444;45.184;9.850;2023-12-29T01:16:27;34.75;;;25.90;;
54545;SDS011;40444;45.184;9.850;2023-12-29T01:18:55;32.90;;;26.25;;
54545;SDS011;40444;45.184;9.850;2023-12-29T01:21:24;32.97;;;25.30;;
54545;SDS011;40444;45.184;9.850;2023-12-29T01:23:55;31.83;;;26.17;;
54545;SDS011;40444;45.184;9.850;2023-12-29T01:26:24;34.10;;;27.40;;
54545;SDS011;40444;45.184;9.850;2023-12-29T01:28:52;34.15;;;27.10;;
54545;SDS011;40444;45.184;9.850;2023-12-29T01:31:21;34.88;;;26.17;;
54545;SDS011;40444;45.184;9.850;2023-12-29T01:33:51;33.08;;;27.13;;
54545;SDS011;40444;45.184;9.850;2023-12-29T01:36:19;36.13;;;27.92;;
54545;SDS011;40444;45.184;9.850;2023-12-29T01:38:52;33.47;;;27.15;;
54545;SDS011;40444;45.184;9.850;2023-12-29T01:41:20;35.55;;;27.90;;
54545;SDS011;40444;45.184;9.850;2023-12-29T01:46:31;33.03;;;26.73;;
54545;SDS011;40444;45.184;9.850;2023-12-29T01:49:03;36.38;;;28.65;;
54545;SDS011;40444;45.184;9.850;2023-12-29T01:51:32;35.28;;;28.80;;
54545;SDS011;40444;45.184;9.850;2023-12-29T01:54:01;34.50;;;28.05;;
54545;SDS011;40444;45.184;9.850;2023-12-29T01:56:29;36.13;;;28.23;;
54545;SDS011;40444;45.184;9.850;2023-12-29T01:58:58;34.20;;;27.27;;
54545;SDS011;40444;45.184;9.850;2023-12-29T02:01:37;35.05;;;27.40;;
54545;SDS011;40444;45.184;9.850;2023-12-29T02:04:08;37.08;;;28.27;;
54545;SDS011;40444;45.184;9.850;2023-12-29T02:06:37;35.85;;;28.85;;
54545;SDS011;40444;45.184;9.850;2023-12-29T02:09:07;35.92;;;27.88;;
54545;SDS011;40444;45.184;9.850;2023-12-29T02:11:36;38.60;;;29.15;;
54545;SDS011;40444;45.184;9.850;2023-12-29T02:14:06;37.60;;;28.48;;
54545;SDS011;40444;45.184;9.850;2023-12-29T02:21:51;35.90;;;28.55;;
54545;SDS011;40444;45.184;9.850;2023-12-29T02:24:20;39.72;;;28.88;;
54545;SDS011;40444;45.184;9.850;2023-12-29T02:26:50;37.38;;;29.08;;
54545;SDS011;40444;45.184;9.850;2023-12-29T02:29:26;37.58;;;26.83;;
54545;SDS011;40444;45.184;9.850;2023-12-29T02:31:59;35.63;;;27.60;;
54545;SDS011;40444;45.184;9.850;2023-12-29T02:34:29;36.88;;;28.27;;
54545;SDS011;40444;45.184;9.850;2023-12-29T02:37:01;36.83;;;28.85;;
54545;SDS011;40444;45.184;9.850;2023-12-29T02:39:31;37.17;;;27.80;;
54545;SDS011;40444;45.184;9.850;2023-12-29T02:42:00;37.05;;;28.40;;
54545;SDS011;40444;45.184;9.850;2023-12-29T02:44:28;40.03;;;29.15;;
54545;SDS011;40444;45.184;9.850;2023-12-29T02:46:57;38.85;;;29.52;;
54545;SDS011;40444;45.184;9.850;2023-12-29T02:49:28;35.53;;;28.42;;
54545;SDS011;40444;45.184;9.850;2023-12-29T02:51:56;39.65;;;29.23;;
54545;SDS011;40444;45.184;9.850;2023-12-29T02:54:25;38.60;;;29.27;;
54545;SDS011;40444;45.184;9.850;2023-12-29T02:56:53;35.67;;;28.77;;
54545;SDS011;40444;45.184;9.850;2023-12-29T02:59:22;36.55;;;28.70;;
54545;SDS011;40444;45.184;9.850;2023-12-29T03:01:50;38.40;;;29.27;;
54545;SDS011;40444;45.184;9.850;2023-12-29T03:04:19;40.72;;;30.52;;
54545;SDS011;40444;45.184;9.850;2023-12-29T03:06:47;37.40;;;28.38;;
54545;SDS011;40444;45.184;9.850;2023-12-29T03:09:16;38.67;;;29.58;;
54545;SDS011;40444;45.184;9.850;2023-12-29T03:11:46;36.97;;;29.23;;
54545;SDS011;40444;45.184;9.850;2023-12-29T03:14:15;33.25;;;27.27;;
54545;SDS011;40444;45.184;9.850;2023-12-29T03:16:43;37.90;;;27.58;;
54545;SDS011;40444;45.184;9.850;2023-12-29T03:19:12;36.50;;;28.10;;
54545;SDS011;40444;45.184;9.850;2023-12-29T03:21:41;34.75;;;27.35;;
54545;SDS011;40444;45.184;9.850;2023-12-29T03:24:10;35.42;;;27.85;;
54545;SDS011;40444;45.184;9.850;2023-12-29T03:26:38;36.42;;;26.58;;
54545;SDS011;40444;45.184;9.850;2023-12-29T03:29:07;34.22;;;26.60;;
54545;SDS011;40444;45.184;9.850;2023-12-29T03:31:35;33.92;;;27.95;;
54545;SDS011;40444;45.184;9.850;2023-12-29T03:34:04;34.75;;;28.15;;
54545;SDS011;40444;45.184;9.850;2023-12-29T03:36:33;33.40;;;26.73;;
54545;SDS011;40444;45.184;9.850;2023-12-29T03:39:02;32.35;;;25.30;;
54545;SDS011;40444;45.184;9.850;2023-12-29T03:41:30;33.58;;;25.75;;
54545;SDS011;40444;45.184;9.850;2023-12-29T03:43:59;30.80;;;24.15;;
54545;SDS011;40444;45.184;9.850;2023-12-29T03:46:28;33.00;;;25.23;;
54545;SDS011;40444;45.184;9.850;2023-12-29T03:48:57;31.50;;;24.48;;
54545;SDS011;40444;45.184;9.850;2023-12-29T03:51:26;30.65;;;24.55;;
54545;SDS011;40444;45.184;9.850;2023-12-29T03:53:55;30.75;;;25.67;;
54545;SDS011;40444;45.184;9.850;2023-12-29T03:56:24;33.50;;;25.23;;
54545;SDS011;40444;45.184;9.850;2023-12-29T03:58:53;30.02;;;24.02;;
54545;SDS011;40444;45.184;9.850;2023-12-29T04:01:21;31.92;;;24.92;;
54545;SDS011;40444;45.184;9.850;2023-12-29T04:03:51;32.25;;;23.48;;
54545;SDS011;40444;45.184;9.850;2023-12-29T04:06:19;32.13;;;24.55;;
54545;SDS011;40444;45.184;9.850;2023-12-29T04:08:48;30.67;;;23.92;;
54545;SDS011;40444;45.184;9.850;2023-12-29T04:11:17;31.10;;;24.33;;
54545;SDS011;40444;45.184;9.850;2023-12-29T04:13:45;32.60;;;23.95;;
54545;SDS011;40444;45.184;9.850;2023-12-29T04:16:14;30.10;;;22.65;;
54545;SDS011;40444;45.184;9.850;2023-12-29T04:18:43;32.65;;;23.40;;
54545;SDS011;40444;45.184;9.850;2023-12-29T04:21:14;31.73;;;24.23;;
54545;SDS011;40444;45.184;9.850;2023-12-29T04:23:43;30.98;;;23.05;;
54545;SDS011;40444;45.184;9.850;2023-12-29T04:26:12;32.45;;;24.42;;
54545;SDS011;40444;45.184;9.850;2023-12-29T04:28:41;31.63;;;23.38;;
54545;SDS011;40444;45.184;9.850;2023-12-29T04:31:10;31.05;;;23.42;;
54545;SDS011;40444;45.184;9.850;2023-12-29T04:33:41;30.02;;;23.60;;
54545;SDS011;40444;45.184;9.850;2023-12-29T04:36:09;28.48;;;23.10;;
54545;SDS011;40444;45.184;9.850;2023-12-29T04:38:40;29.55;;;23.27;;
54545;SDS011;40444;45.184;9.850;2023-12-29T04:41:08;28.65;;;24.10;;
54545;SDS011;40444;45.184;9.850;2023-12-29T04:43:39;29.25;;;22.70;;
54545;SDS011;40444;45.184;9.850;2023-12-29T04:46:07;31.67;;;24.02;;
54545;SDS011;40444;45.184;9.850;2023-12-29T04:48:36;29.70;;;22.67;;
54545;SDS011;40444;45.184;9.850;2023-12-29T04:51:05;27.55;;;22.30;;
54545;SDS011;40444;45.184;9.850;2023-12-29T04:53:33;30.17;;;22.75;;
54545;SDS011;40444;45.184;9.850;2023-12-29T04:56:02;29.70;;;23.88;;
54545;SDS011;40444;45.184;9.850;2023-12-29T04:58:30;30.60;;;22.85;;
54545;SDS011;40444;45.184;9.850;2023-12-29T05:00:59;31.35;;;23.05;;
54545;SDS011;40444;45.184;9.850;2023-12-29T05:03:27;30.15;;;22.27;;
54545;SDS011;40444;45.184;9.850;2023-12-29T05:05:56;30.00;;;23.98;;
54545;SDS011;40444;45.184;9.850;2023-12-29T05:08:24;34.22;;;24.52;;
54545;SDS011;40444;45.184;9.850;2023-12-29T05:10:53;30.38;;;23.33;;
54545;SDS011;40444;45.184;9.850;2023-12-29T05:13:23;32.45;;;24.73;;
54545;SDS011;40444;45.184;9.850;2023-12-29T05:15:52;30.70;;;24.35;;
54545;SDS011;40444;45.184;9.850;2023-12-29T05:18:20;29.50;;;23.50;;
54545;SDS011;40444;45.184;9.850;2023-12-29T05:20:49;28.08;;;22.75;;
54545;SDS011;40444;45.184;9.850;2023-12-29T05:23:17;31.50;;;23.02;;
54545;SDS011;40444;45.184;9.850;2023-12-29T05:25:46;30.77;;;24.27;;
54545;SDS011;40444;45.184;9.850;2023-12-29T05:28:14;32.03;;;24.08;;
54545;SDS011;40444;45.184;9.850;2023-12-29T05:30:43;32.85;;;24.80;;
54545;SDS011;40444;45.184;9.850;2023-12-29T05:33:11;27.95;;;22.58;;
54545;SDS011;40444;45.184;9.850;2023-12-29T05:35:40;31.98;;;25.95;;
54545;SDS011;40444;45.184;9.850;2023-12-29T05:38:08;31.45;;;25.33;;
54545;SDS011;40444;45.184;9.850;2023-12-29T05:40:37;28.85;;;24.20;;
54545;SDS011;40444;45.184;9.850;2023-12-29T05:43:06;34.08;;;24.58;;
54545;SDS011;40444;45.184;9.850;2023-12-29T05:45:34;32.60;;;25.30;;
54545;SDS011;40444;45.184;9.850;2023-12-29T05:48:03;33.20;;;25.95;;
54545;SDS011;40444;45.184;9.850;2023-12-29T05:50:32;36.97;;;25.95;;
54545;SDS011;40444;45.184;9.850;2023-12-29T20:31:08;101.82;;;56.28;;
54545;SDS011;40444;45.184;9.850;2023-12-29T20:33:38;115.68;;;62.17;;
54545;SDS011;40444;45.184;9.850;2023-12-29T20:36:07;131.68;;;70.35;;
54545;SDS011;40444;45.184;9.850;2023-12-29T20:38:35;128.70;;;71.95;;
54545;SDS011;40444;45.184;9.850;2023-12-29T20:41:04;122.53;;;67.65;;
54545;SDS011;40444;45.184;9.850;2023-12-29T20:43:32;125.85;;;68.47;;
54545;SDS011;40444;45.184;9.850;2023-12-29T20:46:01;114.15;;;65.05;;
54545;SDS011;40444;45.184;9.850;2023-12-29T20:48:30;108.28;;;62.05;;
54545;SDS011;40444;45.184;9.850;2023-12-29T20:50:59;99.88;;;55.90;;
54545;SDS011;40444;45.184;9.850;2023-12-29T20:53:37;91.35;;;54.33;;
54545;SDS011;40444;45.184;9.850;2023-12-29T20:56:08;90.88;;;52.70;;
54545;SDS011;40444;45.184;9.850;2023-12-29T20:58:38;84.88;;;50.70;;
54545;SDS011;40444;45.184;9.850;2023-12-29T21:01:07;74.97;;;47.88;;
54545;SDS011;40444;45.184;9.850;2023-12-29T21:03:38;72.65;;;49.80;;
54545;SDS011;40444;45.184;9.850;2023-12-29T21:06:14;71.28;;;46.40;;
54545;SDS011;40444;45.184;9.850;2023-12-29T21:08:44;70.00;;;44.92;;
54545;SDS011;40444;45.184;9.850;2023-12-29T21:11:16;68.57;;;44.55;;
54545;SDS011;40444;45.184;9.850;2023-12-29T21:13:46;66.35;;;45.17;;
54545;SDS011;40444;45.184;9.850;2023-12-29T21:16:16;70.53;;;47.33;;
54545;SDS011;40444;45.184;9.850;2023-12-29T21:18:46;73.18;;;46.88;;
54545;SDS011;40444;45.184;9.850;2023-12-29T21:21:20;72.38;;;47.58;;
54545;SDS011;40444;45.184;9.850;2023-12-29T21:23:48;74.95;;;47.72;;
54545;SDS011;40444;45.184;9.850;2023-12-29T21:26:20;72.60;;;47.75;;
54545;SDS011;40444;45.184;9.850;2023-12-29T21:28:50;77.80;;;48.03;;
54545;SDS011;40444;45.184;9.850;2023-12-29T21:31:19;69.03;;;47.75;;
54545;SDS011;40444;45.184;9.850;2023-12-29T21:33:48;70.93;;;47.15;;
54545;SDS011;40444;45.184;9.850;2023-12-29T21:36:20;68.30;;;46.42;;
54545;SDS011;40444;45.184;9.850;2023-12-29T21:38:51;72.68;;;45.97;;
54545;SDS011;40444;45.184;9.850;2023-12-29T21:41:22;69.70;;;46.17;;
54545;SDS011;40444;45.184;9.850;2023-12-29T21:43:51;65.60;;;45.05;;
54545;SDS011;40444;45.184;9.850;2023-12-29T21:46:20;70.43;;;47.72;;
54545;SDS011;40444;45.184;9.850;2023-12-29T21:48:52;71.55;;;45.53;;
54545;SDS011;40444;45.184;9.850;2023-12-29T21:51:24;65.28;;;44.88;;
54545;SDS011;40444;45.184;9.850;2023-12-29T21:53:53;67.32;;;45.65;;
54545;SDS011;40444;45.184;9.850;2023-12-29T21:56:21;66.65;;;45.28;;
54545;SDS011;40444;45.184;9.850;2023-12-29T21:58:50;67.38;;;46.47;;
54545;SDS011;40444;45.184;9.850;2023-12-29T22:01:34;65.28;;;45.85;;
54545;SDS011;40444;45.184;9.850;2023-12-29T22:06:40;62.25;;;43.25;;
54545;SDS011;40444;45.184;9.850;2023-12-29T22:09:08;59.30;;;43.60;;
54545;SDS011;40444;45.184;9.850;2023-12-29T22:11:38;65.35;;;46.08;;
54545;SDS011;40444;45.184;9.850;2023-12-29T22:14:06;63.53;;;44.17;;
54545;SDS011;40444;45.184;9.850;2023-12-29T22:16:35;59.85;;;43.60;;
54545;SDS011;40444;45.184;9.850;2023-12-29T22:19:04;61.20;;;43.45;;
54545;SDS011;40444;45.184;9.850;2023-12-29T22:21:34;58.90;;;43.08;;
54545;SDS011;40444;45.184;9.850;2023-12-29T22:24:02;59.28;;;43.45;;
54545;SDS011;40444;45.184;9.850;2023-12-29T22:26:31;59.28;;;41.97;;
54545;SDS011;40444;45.184;9.850;2023-12-29T22:29:02;59.75;;;42.92;;
54545;SDS011;40444;45.184;9.850;2023-12-29T22:31:31;59.55;;;42.95;;
54545;SDS011;40444;45.184;9.850;2023-12-29T22:34:01;59.33;;;43.50;;
54545;SDS011;40444;45.184;9.850;2023-12-29T22:36:30;63.15;;;44.03;;
54545;SDS011;40444;45.184;9.850;2023-12-29T22:38:59;62.58;;;44.72;;
54545;SDS011;40444;45.184;9.850;2023-12-29T22:41:27;59.95;;;44.60;;
54545;SDS011;40444;45.184;9.850;2023-12-29T22:43:56;61.65;;;44.75;;
54545;SDS011;40444;45.184;9.850;2023-12-29T22:46:25;59.53;;;44.25;;
54545;SDS011;40444;45.184;9.850;2023-12-29T22:48:55;59.35;;;44.13;;
54545;SDS011;40444;45.184;9.850;2023-12-29T22:51:23;60.03;;;44.45;;
54545;SDS011;40444;45.184;9.850;2023-12-29T22:53:53;59.85;;;44.58;;
54545;SDS011;40444;45.184;9.850;2023-12-29T22:56:22;57.28;;;43.13;;
54545;SDS011;40444;45.184;9.850;2023-12-29T22:58:51;59.63;;;42.85;;
54545;SDS011;40444;45.184;9.850;2023-12-29T23:01:20;58.60;;;43.05;;
54545;SDS011;40444;45.184;9.850;2023-12-29T23:03:49;59.28;;;42.40;;
54545;SDS011;40444;45.184;9.850;2023-12-29T23:06:18;59.33;;;44.63;;
54545;SDS011;40444;45.184;9.850;2023-12-29T23:08:47;62.50;;;45.60;;
54545;SDS011;40444;45.184;9.850;2023-12-29T23:11:15;58.13;;;43.22;;
54545;SDS011;40444;45.184;9.850;2023-12-29T23:13:44;61.28;;;43.70;;
54545;SDS011;40444;45.184;9.850;2023-12-29T23:16:13;58.92;;;43.45;;
54545;SDS011;40444;45.184;9.850;2023-12-29T23:18:41;59.95;;;44.28;;
54545;SDS011;40444;45.184;9.850;2023-12-29T23:21:13;60.88;;;43.40;;
54545;SDS011;40444;45.184;9.850;2023-12-29T23:23:42;57.58;;;42.45;;
54545;SDS011;40444;45.184;9.850;2023-12-29T23:26:10;63.53;;;44.35;;
54545;SDS011;40444;45.184;9.850;2023-12-29T23:28:38;57.10;;;43.30;;
54545;SDS011;40444;45.184;9.850;2023-12-29T23:31:07;58.53;;;41.80;;
54545;SDS011;40444;45.184;9.850;2023-12-29T23:33:37;60.45;;;43.10;;
54545;SDS011;40444;45.184;9.850;2023-12-29T23:36:06;62.42;;;44.47;;
54545;SDS011;40444;45.184;9.850;2023-12-29T23:38:38;61.83;;;44.22;;
54545;SDS011;40444;45.184;9.850;2023-12-29T23:41:06;58.10;;;43.00;;
54545;SDS011;40444;45.184;9.850;2023-12-29T23:43:35;61.13;;;45.20;;
54545;SDS011;40444;45.184;9.850;2023-12-29T23:46:04;63.33;;;45.13;;
54545;SDS011;40444;45.184;9.850;2023-12-29T23:48:32;59.13;;;43.83;;
54545;SDS011;40444;45.184;9.850;2023-12-29T23:51:01;66.63;;;46.78;;
54545;SDS011;40444;45.184;9.850;2023-12-29T23:53:31;63.67;;;45.80;;
54545;SDS011;40444;45.184;9.850;2023-12-29T23:55:59;63.60;;;46.00;;
54545;SDS011;40444;45.184;9.850;2023-12-29T23:58:28;62.15;;;45.85;;
